Time;durP1;ratioP1;P1;durP2;ratioP2;P2;SDS_P1;SDS_P2;PMS_P1;PMS_P2;Temp;Humidity;BMP_temperature;BMP_pressure;BME280_temperature;BME280_humidity;BME280_pressure;Samples;Min_cycle;Max_cycle;Signal;HPM_P1;HPM_P2
2023/06/21 00:02:20;;;;;;;;;;;20.60;99.90;;;;;;5076573;28;19987;-74
2023/06/21 00:04:46;;;;;;;;;;;20.40;99.90;;;;;;5077010;28;19919;-74
2023/06/21 00:07:11;;;;;;;;;;;20.30;99.90;;;;;;5077703;28;19909;-73
2023/06/21 00:09:37;;;;;;;;;;;20.10;99.90;;;;;;5076337;28;19909;-74
2023/06/21 00:12:03;;;;;;;;;;;20.00;99.90;;;;;;5076283;28;19909;-73
2023/06/21 00:14:28;;;;;;;;;;;19.90;99.90;;;;;;5075937;28;20379;-73
2023/06/21 00:16:54;;;;;;;;;;;20.00;99.90;;;;;;5058071;28;19911;-73
2023/06/21 00:19:19;;;;;;;;;;;20.00;99.90;;;;;;5075735;28;19997;-73
2023/06/21 00:21:45;;;;;;;;;;;20.00;99.90;;;;;;5075712;28;19915;-74
2023/06/21 00:24:11;;;;;;;;;;;20.00;99.90;;;;;;5074968;28;20279;-73
2023/06/21 00:26:36;;;;;;;;;;;19.90;99.90;;;;;;5075942;28;19908;-74
2023/06/21 00:29:02;;;;;;;;;;;19.80;99.90;;;;;;5075540;28;20287;-73
2023/06/21 00:31:27;;;;;;;;;;;19.80;99.90;;;;;;5076130;28;19995;-74
2023/06/21 00:33:53;;;;;;;;;;;19.80;99.90;;;;;;5075394;28;19928;-73
2023/06/21 00:36:18;;;;;;;;;;;19.80;99.90;;;;;;5075589;28;19913;-74
2023/06/21 00:38:44;;;;;;;;;;;19.70;99.90;;;;;;5075266;28;19947;-74
2023/06/21 00:41:09;;;;;;;;;;;19.60;99.90;;;;;;5075429;28;19995;-74
2023/06/21 00:43:35;;;;;;;;;;;19.60;99.90;;;;;;5075110;28;19908;-73
2023/06/21 00:46:01;;;;;;;;;;;19.60;99.90;;;;;;5073904;28;19999;-74
2023/06/21 00:48:28;;;;;;;;;;;19.60;99.90;;;;;;5075535;28;19979;-74
2023/06/21 00:50:57;;;;;;;;;;;19.70;99.90;;;;;;5075315;28;19904;-74
2023/06/21 00:53:24;;;;;;;;;;;19.70;99.90;;;;;;5074864;28;20256;-74
2023/06/21 00:55:50;;;;;;;;;;;19.80;99.90;;;;;;5074966;28;20364;-75
2023/06/21 00:58:17;;;;;;;;;;;19.80;99.90;;;;;;5074935;28;20348;-74
2023/06/21 01:00:43;;;;;;;;;;;19.80;99.90;;;;;;5074886;28;20421;-74
2023/06/21 01:03:09;;;;;;;;;;;19.80;99.90;;;;;;5074834;28;19908;-74
2023/06/21 01:05:36;;;;;;;;;;;19.80;99.90;;;;;;5074765;28;19987;-74
2023/06/21 01:08:01;;;;;;;;;;;19.80;99.90;;;;;;5074643;28;19908;-74
2023/06/21 01:10:43;;;;;;;;;;;19.70;99.90;;;;;;5056763;28;20356;-73
2023/06/21 01:13:14;;;;;;;;;;;19.70;99.90;;;;;;5074973;28;20340;-75
2023/06/21 01:15:42;;;;;;;;;;;19.70;99.90;;;;;;5074851;28;19999;-75
2023/06/21 01:18:09;;;;;;;;;;;19.70;99.90;;;;;;5074459;28;19904;-74
2023/06/21 01:20:36;;;;;;;;;;;19.50;99.90;;;;;;5074458;28;19905;-74
2023/06/21 01:23:22;;;;;;;;;;;19.50;99.90;;;;;;5074405;28;19909;-75
2023/06/21 01:26:07;;;;;;;;;;;19.40;99.90;;;;;;5056464;28;19974;-75
2023/06/21 01:28:32;;;;;;;;;;;19.40;99.90;;;;;;5074144;28;19905;-74
2023/06/21 01:30:58;;;;;;;;;;;19.40;99.90;;;;;;5074382;28;19904;-75
2023/06/21 01:33:25;;;;;;;;;;;19.30;99.90;;;;;;5074500;28;19912;-75
2023/06/21 01:35:52;;;;;;;;;;;19.20;99.90;;;;;;5073838;28;19983;-74
2023/06/21 01:38:18;;;;;;;;;;;19.10;99.90;;;;;;5074172;28;20406;-75
2023/06/21 01:40:44;;;;;;;;;;;19.10;99.90;;;;;;5074174;28;19987;-75
2023/06/21 01:43:10;;;;;;;;;;;19.10;99.90;;;;;;5074144;28;19942;-75
2023/06/21 01:45:36;;;;;;;;;;;19.10;99.90;;;;;;5073968;28;19966;-74
2023/06/21 01:48:02;;;;;;;;;;;19.10;99.90;;;;;;5074003;28;20286;-74
2023/06/21 01:50:28;;;;;;;;;;;19.10;99.90;;;;;;5074364;28;20264;-75
2023/06/21 01:52:55;;;;;;;;;;;19.10;99.90;;;;;;5073974;28;19908;-75
2023/06/21 01:55:21;;;;;;;;;;;19.00;99.90;;;;;;5072738;28;19915;-74
2023/06/21 01:57:47;;;;;;;;;;;18.90;99.90;;;;;;5073850;28;20007;-73
2023/06/21 02:00:21;;;;;;;;;;;18.90;99.90;;;;;;5074186;28;19940;-75
2023/06/21 02:02:52;;;;;;;;;;;18.80;99.90;;;;;;5072891;28;20333;-74
2023/06/21 02:05:19;;;;;;;;;;;18.70;99.90;;;;;;5074121;28;20004;-75
2023/06/21 02:07:45;;;;;;;;;;;18.70;99.90;;;;;;5073763;28;19909;-74
2023/06/21 02:10:12;;;;;;;;;;;18.70;99.90;;;;;;5073829;28;19908;-75
2023/06/21 02:12:40;;;;;;;;;;;18.70;99.90;;;;;;5073775;28;19915;-74
2023/06/21 02:15:06;;;;;;;;;;;18.70;99.90;;;;;;5073808;28;19908;-74
2023/06/21 02:17:31;;;;;;;;;;;18.70;99.90;;;;;;5073666;28;19911;-73
2023/06/21 02:19:57;;;;;;;;;;;18.80;99.90;;;;;;5073716;28;19915;-74
2023/06/21 02:22:22;;;;;;;;;;;18.80;99.90;;;;;;5073911;28;19908;-75
2023/06/21 02:24:48;;;;;;;;;;;18.80;99.90;;;;;;5073621;28;19915;-74
2023/06/21 02:27:13;;;;;;;;;;;18.80;99.90;;;;;;5073593;28;19998;-73
2023/06/21 02:29:40;;;;;;;;;;;18.80;99.90;;;;;;5074221;28;19919;-75
2023/06/21 02:32:05;;;;;;;;;;;18.80;99.90;;;;;;5073636;28;19962;-75
2023/06/21 02:34:31;;;;;;;;;;;18.70;99.90;;;;;;5073603;28;20501;-75
2023/06/21 02:36:56;;;;;;;;;;;18.70;99.90;;;;;;5073580;28;19909;-74
2023/06/21 02:39:22;;;;;;;;;;;18.60;99.90;;;;;;5055418;28;19916;-75
2023/06/21 02:41:48;;;;;;;;;;;18.60;99.90;;;;;;5074083;28;19908;-75
2023/06/21 02:44:14;;;;;;;;;;;18.50;99.90;;;;;;5073793;28;19999;-74
2023/06/21 02:46:39;;;;;;;;;;;18.50;99.90;;;;;;5074878;28;19958;-75
2023/06/21 02:49:05;;;;;;;;;;;18.40;99.90;;;;;;5076043;28;19908;-73
2023/06/21 02:51:30;;;;;;;;;;;18.40;99.90;;;;;;5077237;28;19908;-74
2023/06/21 02:53:56;;;;;;;;;;;18.30;99.90;;;;;;5077514;28;20307;-74
2023/06/21 02:56:21;;;;;;;;;;;18.30;99.90;;;;;;5077210;28;20378;-74
2023/06/21 02:58:47;;;;;;;;;;;18.30;99.90;;;;;;5077450;28;20327;-74
2023/06/21 03:01:13;;;;;;;;;;;18.30;99.90;;;;;;5077862;28;19908;-73
2023/06/21 03:03:43;;;;;;;;;;;18.30;99.90;;;;;;5078108;28;20003;-74
2023/06/21 03:06:08;;;;;;;;;;;18.30;99.90;;;;;;5077353;28;19944;-75
2023/06/21 03:08:36;;;;;;;;;;;18.20;99.90;;;;;;5076907;28;19916;-74
2023/06/21 03:11:02;;;;;;;;;;;18.20;99.90;;;;;;5076879;28;19987;-74
2023/06/21 03:13:28;;;;;;;;;;;18.20;99.90;;;;;;5076829;28;20042;-75
2023/06/21 03:15:53;;;;;;;;;;;18.10;99.90;;;;;;5077195;28;20348;-75
2023/06/21 03:18:19;;;;;;;;;;;18.00;99.90;;;;;;5076723;28;19912;-74
2023/06/21 03:20:46;;;;;;;;;;;18.00;99.90;;;;;;5076764;28;19948;-74
2023/06/21 03:23:12;;;;;;;;;;;17.90;99.90;;;;;;5076662;28;19904;-75
2023/06/21 03:25:38;;;;;;;;;;;17.90;99.90;;;;;;5077017;28;19940;-75
2023/06/21 03:28:03;;;;;;;;;;;17.90;99.90;;;;;;5076812;28;19910;-73
2023/06/21 03:30:29;;;;;;;;;;;17.90;99.90;;;;;;5076539;28;19912;-74
2023/06/21 03:32:54;;;;;;;;;;;17.90;99.90;;;;;;5076459;28;20364;-75
2023/06/21 03:35:20;;;;;;;;;;;17.90;99.90;;;;;;5076479;28;19908;-73
2023/06/21 03:37:48;;;;;;;;;;;17.90;99.90;;;;;;5076061;28;20281;-74
2023/06/21 03:40:14;;;;;;;;;;;17.90;99.90;;;;;;5074890;28;20587;-73
2023/06/21 03:42:41;;;;;;;;;;;17.90;99.90;;;;;;5057651;28;19916;-73
2023/06/21 03:45:07;;;;;;;;;;;17.90;99.90;;;;;;5075445;28;20365;-73
2023/06/21 03:47:34;;;;;;;;;;;18.00;99.90;;;;;;5075421;28;19916;-73
2023/06/21 03:50:00;;;;;;;;;;;17.90;99.90;;;;;;5075707;28;20276;-73
2023/06/21 03:52:25;;;;;;;;;;;17.90;99.90;;;;;;5076009;28;19965;-73
2023/06/21 03:54:52;;;;;;;;;;;17.90;99.90;;;;;;5076619;28;20355;-75
2023/06/21 03:57:17;;;;;;;;;;;17.90;99.90;;;;;;5075455;28;19904;-73
2023/06/21 03:59:43;;;;;;;;;;;17.80;99.90;;;;;;5075380;28;19915;-74
2023/06/21 04:02:08;;;;;;;;;;;17.70;99.90;;;;;;5057943;28;19959;-74
2023/06/21 04:04:34;;;;;;;;;;;17.60;99.90;;;;;;5075960;28;19936;-74
2023/06/21 04:06:59;;;;;;;;;;;17.50;99.90;;;;;;5075719;28;19991;-74
2023/06/21 04:09:25;;;;;;;;;;;17.40;99.90;;;;;;5075838;28;20383;-74
2023/06/21 04:11:50;;;;;;;;;;;17.40;99.90;;;;;;5057762;28;19908;-74
2023/06/21 04:14:16;;;;;;;;;;;17.40;99.90;;;;;;5076032;28;19923;-74
2023/06/21 04:16:42;;;;;;;;;;;17.40;99.90;;;;;;5075605;28;19915;-73
2023/06/21 04:19:08;;;;;;;;;;;17.40;99.90;;;;;;5075624;28;19908;-74
2023/06/21 04:21:33;;;;;;;;;;;17.50;99.90;;;;;;5075625;28;19908;-75
2023/06/21 04:23:59;;;;;;;;;;;17.50;99.90;;;;;;5076449;28;19908;-75
2023/06/21 04:26:24;;;;;;;;;;;17.50;99.90;;;;;;5075429;28;19904;-73
2023/06/21 04:28:50;;;;;;;;;;;17.60;99.90;;;;;;5075282;28;20384;-73
2023/06/21 04:31:16;;;;;;;;;;;17.60;99.90;;;;;;5075354;28;19954;-73
2023/06/21 04:33:41;;;;;;;;;;;17.60;99.90;;;;;;5075287;28;19912;-75
2023/06/21 04:36:07;;;;;;;;;;;17.60;99.90;;;;;;5075355;28;19909;-75
2023/06/21 04:38:33;;;;;;;;;;;17.70;99.90;;;;;;5075101;28;19916;-75
2023/06/21 04:40:58;;;;;;;;;;;17.60;99.90;;;;;;5075213;28;20277;-74
2023/06/21 04:43:25;;;;;;;;;;;17.60;99.90;;;;;;5074441;28;19915;-74
2023/06/21 04:45:51;;;;;;;;;;;17.60;99.90;;;;;;5075131;28;19954;-73
2023/06/21 04:48:16;;;;;;;;;;;17.60;99.90;;;;;;5057344;28;20319;-74
2023/06/21 04:50:45;;;;;;;;;;;17.60;99.90;;;;;;5074710;28;19916;-73
2023/06/21 04:53:11;;;;;;;;;;;17.70;99.90;;;;;;5073517;28;19912;-73
2023/06/21 04:55:42;;;;;;;;;;;17.70;99.90;;;;;;5072921;28;19954;-73
2023/06/21 04:58:12;;;;;;;;;;;17.70;99.90;;;;;;5072915;28;19934;-73
2023/06/21 05:00:38;;;;;;;;;;;17.70;99.90;;;;;;5072841;28;19911;-73
2023/06/21 05:03:03;;;;;;;;;;;17.70;99.90;;;;;;5072747;28;19908;-73
2023/06/21 05:05:29;;;;;;;;;;;17.80;99.90;;;;;;5073107;28;19912;-73
2023/06/21 05:07:55;;;;;;;;;;;17.70;99.90;;;;;;5072975;28;19904;-73
2023/06/21 05:10:20;;;;;;;;;;;17.80;99.90;;;;;;5055713;28;19916;-73
2023/06/21 05:12:46;;;;;;;;;;;17.80;99.90;;;;;;5075123;28;19915;-74
2023/06/21 05:15:11;;;;;;;;;;;17.80;99.90;;;;;;5073739;28;20372;-73
2023/06/21 05:17:37;;;;;;;;;;;17.80;99.90;;;;;;5073172;28;20352;-73
2023/06/21 05:20:03;;;;;;;;;;;17.90;99.90;;;;;;5073779;28;19904;-73
2023/06/21 05:22:29;;;;;;;;;;;17.90;99.90;;;;;;5073656;28;20104;-73
2023/06/21 05:24:55;;;;;;;;;;;17.90;99.90;;;;;;5073532;28;19914;-73
2023/06/21 05:27:20;;;;;;;;;;;17.90;99.90;;;;;;5073390;28;19909;-73
2023/06/21 05:29:46;;;;;;;;;;;18.00;99.90;;;;;;5073819;28;19915;-73
2023/06/21 05:32:11;;;;;;;;;;;18.00;99.90;;;;;;5056285;28;19915;-74
2023/06/21 05:34:37;;;;;;;;;;;18.00;99.90;;;;;;5074541;28;19914;-74
2023/06/21 05:37:02;;;;;;;;;;;18.00;99.90;;;;;;5056134;28;19908;-73
2023/06/21 05:39:28;;;;;;;;;;;18.10;99.90;;;;;;5074459;28;19916;-74
2023/06/21 05:41:54;;;;;;;;;;;18.10;99.90;;;;;;5074175;28;19911;-74
2023/06/21 05:44:19;;;;;;;;;;;18.10;99.90;;;;;;5056173;28;19912;-74
2023/06/21 05:46:45;;;;;;;;;;;18.10;99.90;;;;;;5074160;28;19915;-74
2023/06/21 05:49:10;;;;;;;;;;;18.20;99.90;;;;;;5073982;28;19932;-73
2023/06/21 05:51:36;;;;;;;;;;;18.20;99.90;;;;;;5074021;28;19915;-74
2023/06/21 05:54:02;;;;;;;;;;;18.20;99.90;;;;;;5073873;28;20357;-74
2023/06/21 05:56:28;;;;;;;;;;;18.30;99.90;;;;;;5074019;28;19915;-73
2023/06/21 05:58:54;;;;;;;;;;;18.30;99.90;;;;;;5073836;28;20009;-73
2023/06/21 06:01:20;;;;;;;;;;;18.40;99.90;;;;;;5074192;28;19955;-74
2023/06/21 06:03:45;;;;;;;;;;;18.50;99.90;;;;;;5073852;28;19963;-74
2023/06/21 06:06:14;;;;;;;;;;;18.60;99.90;;;;;;5073777;28;19904;-74
2023/06/21 06:08:40;;;;;;;;;;;18.70;99.90;;;;;;5074031;28;19912;-73
2023/06/21 06:11:05;;;;;;;;;;;18.70;99.90;;;;;;5073744;28;19916;-74
2023/06/21 06:13:31;;;;;;;;;;;18.80;99.90;;;;;;5074525;28;19918;-75
2023/06/21 06:15:56;;;;;;;;;;;18.90;99.90;;;;;;5056154;28;19908;-74
2023/06/21 06:18:22;;;;;;;;;;;19.00;99.90;;;;;;5073693;28;19909;-74
2023/06/21 06:20:47;;;;;;;;;;;19.00;99.90;;;;;;5074889;28;19909;-74
2023/06/21 06:23:13;;;;;;;;;;;19.10;99.90;;;;;;5062588;28;19908;-73
2023/06/21 06:25:39;;;;;;;;;;;19.20;99.90;;;;;;5080438;28;19916;-74
2023/06/21 07:31:54;;;;;;;;;;;21.30;99.90;;;;;;5069754;28;20374;-71
2023/06/21 07:34:20;;;;;;;;;;;22.60;99.90;;;;;;5068162;28;19931;-71
2023/06/21 07:36:45;;;;;;;;;;;22.60;99.90;;;;;;5070529;28;19924;-71
2023/06/21 07:39:11;;;;;;;;;;;22.70;99.90;;;;;;5070612;28;19912;-71
2023/06/21 07:41:36;;;;;;;;;;;22.80;99.90;;;;;;5068955;28;19912;-71
2023/06/21 08:15:16;;;;;;;;;;;24.20;99.90;;;;;;5132849;27;20385;-74
2023/06/21 08:17:42;;;;;;;;;;;24.80;99.90;;;;;;5132132;27;19923;-74
2023/06/21 08:20:07;;;;;;;;;;;24.90;99.90;;;;;;5132405;28;19915;-74
2023/06/21 08:22:33;;;;;;;;;;;25.00;99.90;;;;;;5131913;27;20369;-75
2023/06/21 08:24:59;;;;;;;;;;;25.10;99.90;;;;;;5131829;28;19912;-75
2023/06/21 08:27:24;;;;;;;;;;;25.20;99.90;;;;;;5131799;27;20007;-75
2023/06/21 08:29:50;;;;;;;;;;;25.40;99.90;;;;;;5131802;28;20002;-75
2023/06/21 08:32:16;;;;;;;;;;;25.50;99.90;;;;;;5131919;28;19916;-75
2023/06/21 08:34:41;;;;;;;;;;;25.60;99.90;;;;;;5131471;27;19952;-75
2023/06/21 08:37:07;;;;;;;;;;;25.80;99.90;;;;;;5131994;28;19916;-75
2023/06/21 08:39:32;;;;;;;;;;;25.90;99.90;;;;;;5131637;28;19919;-75
2023/06/21 08:41:58;;;;;;;;;;;26.10;99.90;;;;;;5113068;28;20284;-75
2023/06/21 08:44:23;;;;;;;;;;;26.20;99.90;;;;;;5113096;28;19911;-75
2023/06/21 08:46:49;;;;;;;;;;;26.30;99.40;;;;;;5131450;28;19964;-75
2023/06/21 08:49:18;;;;;;;;;;;26.50;99.60;;;;;;5130123;28;19920;-74
2023/06/21 08:51:45;;;;;;;;;;;26.60;98.90;;;;;;5131372;27;19908;-73
2023/06/21 08:54:11;;;;;;;;;;;26.70;98.40;;;;;;5131306;27;19915;-72
2023/06/21 08:56:59;;;;;;;;;;;26.80;98.00;;;;;;5131649;28;20426;-73
2023/06/21 08:59:25;;;;;;;;;;;26.90;97.60;;;;;;5101946;27;19908;-73
2023/06/21 09:02:13;;;;;;;;;;;27.10;97.50;;;;;;5131252;28;19908;-73
2023/06/21 09:04:43;;;;;;;;;;;27.20;97.20;;;;;;5123199;28;20349;-72
2023/06/21 09:07:11;;;;;;;;;;;27.30;95.50;;;;;;5131823;27;20322;-71
2023/06/21 09:09:36;;;;;;;;;;;27.40;96.00;;;;;;5129574;28;19950;-71
2023/06/21 09:12:02;;;;;;;;;;;27.50;94.30;;;;;;5131015;27;19912;-71
2023/06/21 09:14:31;;;;;;;;;;;27.60;95.30;;;;;;5126973;28;19924;-71
2023/06/21 09:16:59;;;;;;;;;;;27.70;95.10;;;;;;5117234;28;20437;-71
2023/06/21 09:19:24;;;;;;;;;;;27.80;94.10;;;;;;5117422;28;20361;-71
2023/06/21 09:21:50;;;;;;;;;;;28.00;94.80;;;;;;5117028;28;19916;-71
2023/06/21 09:24:16;;;;;;;;;;;28.20;95.10;;;;;;5117155;28;20365;-71
2023/06/21 09:26:41;;;;;;;;;;;28.30;93.10;;;;;;5117446;28;19994;-72
2023/06/21 09:29:07;;;;;;;;;;;28.30;94.90;;;;;;5116883;28;20296;-72
2023/06/21 09:31:32;;;;;;;;;;;28.50;94.40;;;;;;5116292;28;20353;-71
2023/06/21 09:33:59;;;;;;;;;;;28.60;92.50;;;;;;5116680;28;20292;-71
2023/06/21 09:36:25;;;;;;;;;;;28.80;90.80;;;;;;5115924;28;20440;-71
2023/06/21 09:38:50;;;;;;;;;;;28.90;89.20;;;;;;5112156;28;19947;-70
2023/06/21 09:41:18;;;;;;;;;;;29.00;90.10;;;;;;5104658;28;19939;-71
2023/06/21 09:43:44;;;;;;;;;;;29.00;88.20;;;;;;5106874;28;19931;-71
2023/06/21 09:46:12;;;;;;;;;;;29.10;90.00;;;;;;5096202;28;20351;-71
2023/06/21 09:48:38;;;;;;;;;;;29.20;87.80;;;;;;5106277;28;20164;-71
2023/06/21 09:51:08;;;;;;;;;;;29.30;88.20;;;;;;5100752;28;19912;-71
2023/06/21 09:53:35;;;;;;;;;;;29.40;85.50;;;;;;5095845;28;19912;-71
2023/06/21 09:56:00;;;;;;;;;;;29.50;85.40;;;;;;5095982;28;19908;-71
2023/06/21 09:58:26;;;;;;;;;;;29.60;83.30;;;;;;5095938;28;19954;-71
2023/06/21 10:00:52;;;;;;;;;;;29.60;82.50;;;;;;5097264;28;19916;-71
2023/06/21 10:03:22;;;;;;;;;;;29.60;80.10;;;;;;5095715;28;19912;-71
2023/06/21 10:06:01;;;;;;;;;;;29.80;81.90;;;;;;5095963;28;19973;-71
2023/06/21 10:08:32;;;;;;;;;;;29.90;83.20;;;;;;5095944;28;19908;-71
2023/06/21 10:10:57;;;;;;;;;;;29.90;80.00;;;;;;5097047;28;19966;-70
2023/06/21 10:13:33;;;;;;;;;;;30.00;80.40;;;;;;5095633;28;19920;-71
2023/06/21 10:15:59;;;;;;;;;;;30.10;79.20;;;;;;5096078;28;19931;-71
2023/06/21 10:18:25;;;;;;;;;;;30.10;78.00;;;;;;5095942;28;19943;-71
2023/06/21 10:21:11;;;;;;;;;;;30.10;77.70;;;;;;5094940;28;19912;-71
2023/06/21 10:23:37;;;;;;;;;;;30.20;78.10;;;;;;5094444;28;19908;-71
2023/06/21 10:26:07;;;;;;;;;;;30.30;80.00;;;;;;5094826;28;19908;-71
2023/06/21 10:28:35;;;;;;;;;;;30.40;79.20;;;;;;5095362;28;19913;-71
2023/06/21 10:31:02;;;;;;;;;;;30.40;77.30;;;;;;5095822;28;19908;-70
2023/06/21 10:33:30;;;;;;;;;;;30.50;76.80;;;;;;5095204;28;19923;-70
2023/06/21 10:35:56;;;;;;;;;;;30.40;76.30;;;;;;5095584;28;19912;-70
2023/06/21 10:38:22;;;;;;;;;;;30.40;75.20;;;;;;5095361;28;19962;-70
2023/06/21 10:40:49;;;;;;;;;;;30.40;75.00;;;;;;5095220;28;19916;-70
2023/06/21 10:43:14;;;;;;;;;;;30.40;73.10;;;;;;5095333;28;19912;-71
2023/06/21 10:45:40;;;;;;;;;;;30.40;74.30;;;;;;5095197;28;19919;-70
2023/06/21 10:48:08;;;;;;;;;;;30.50;74.30;;;;;;5094692;28;19915;-70
2023/06/21 10:50:33;;;;;;;;;;;30.50;73.40;;;;;;5095645;28;19908;-71
2023/06/21 10:52:59;;;;;;;;;;;30.50;75.20;;;;;;5094910;28;20377;-71
2023/06/21 10:55:25;;;;;;;;;;;30.60;76.60;;;;;;5094821;28;20307;-71
2023/06/21 10:57:54;;;;;;;;;;;30.60;75.70;;;;;;5094888;28;19977;-70
2023/06/21 11:00:21;;;;;;;;;;;30.70;75.90;;;;;;5094831;28;19957;-70
2023/06/21 11:02:47;;;;;;;;;;;30.70;72.40;;;;;;5094783;28;19908;-70
2023/06/21 11:05:15;;;;;;;;;;;30.70;75.70;;;;;;5094679;28;19908;-70
2023/06/21 11:07:48;;;;;;;;;;;30.80;76.60;;;;;;5094856;28;20381;-70
2023/06/21 11:10:14;;;;;;;;;;;30.90;76.00;;;;;;5093328;28;19915;-71
2023/06/21 11:12:39;;;;;;;;;;;30.90;75.60;;;;;;5094453;28;19908;-70
2023/06/21 11:15:05;;;;;;;;;;;31.00;75.30;;;;;;5094356;28;19973;-70
2023/06/21 11:17:34;;;;;;;;;;;31.00;73.60;;;;;;5094577;28;19916;-70
2023/06/21 11:20:17;;;;;;;;;;;30.90;74.50;;;;;;5094779;28;20019;-70
2023/06/21 11:22:54;;;;;;;;;;;31.00;74.30;;;;;;5094400;28;19957;-70
2023/06/21 11:25:19;;;;;;;;;;;31.00;74.20;;;;;;5094265;28;19908;-70
2023/06/21 11:28:05;;;;;;;;;;;31.00;76.50;;;;;;5094300;28;19919;-70
2023/06/21 11:30:31;;;;;;;;;;;30.90;76.40;;;;;;5094476;28;20028;-70
2023/06/21 11:32:57;;;;;;;;;;;31.00;74.10;;;;;;5094159;28;20066;-70
2023/06/21 11:35:35;;;;;;;;;;;30.90;73.80;;;;;;5094391;28;19962;-70
2023/06/21 11:38:01;;;;;;;;;;;30.80;72.00;;;;;;5094211;28;19915;-70
2023/06/21 11:40:27;;;;;;;;;;;30.70;73.80;;;;;;5094120;28;19912;-70
2023/06/21 11:42:53;;;;;;;;;;;30.60;73.80;;;;;;5094030;28;19981;-70
2023/06/21 11:45:24;;;;;;;;;;;30.50;73.20;;;;;;5093929;28;19912;-70
2023/06/21 11:47:59;;;;;;;;;;;30.40;76.30;;;;;;5114054;28;19912;-70
2023/06/21 11:50:41;;;;;;;;;;;30.40;75.90;;;;;;5114346;28;19915;-70
2023/06/21 11:53:20;;;;;;;;;;;30.20;75.00;;;;;;5114392;28;19912;-71
2023/06/21 11:55:50;;;;;;;;;;;30.20;77.60;;;;;;5114548;28;19908;-71
2023/06/21 11:58:16;;;;;;;;;;;30.30;77.20;;;;;;5114636;28;19958;-70
2023/06/21 12:00:42;;;;;;;;;;;30.40;76.10;;;;;;5114750;28;19929;-71
2023/06/21 12:03:09;;;;;;;;;;;30.50;77.30;;;;;;5099499;28;19919;-71
2023/06/21 12:05:50;;;;;;;;;;;30.60;76.00;;;;;;5113529;28;19908;-71
2023/06/21 12:08:17;;;;;;;;;;;30.70;76.20;;;;;;5113663;28;19908;-71
2023/06/21 12:10:43;;;;;;;;;;;30.70;76.50;;;;;;5113558;28;19908;-71
2023/06/21 12:13:11;;;;;;;;;;;30.80;76.50;;;;;;5107164;28;20456;-71
2023/06/21 12:15:36;;;;;;;;;;;30.70;75.90;;;;;;5096995;28;20320;-71
2023/06/21 12:18:05;;;;;;;;;;;30.60;76.50;;;;;;5099861;28;19918;-71
2023/06/21 12:20:31;;;;;;;;;;;30.50;76.70;;;;;;5094013;28;19994;-71
2023/06/21 12:22:57;;;;;;;;;;;30.30;77.80;;;;;;5094019;28;19913;-71
2023/06/21 12:25:22;;;;;;;;;;;30.20;78.20;;;;;;5093774;28;19965;-71
2023/06/21 12:27:52;;;;;;;;;;;30.40;79.80;;;;;;5093935;28;19916;-71
2023/06/21 12:30:18;;;;;;;;;;;30.40;79.90;;;;;;5097776;28;19920;-70
2023/06/21 12:32:46;;;;;;;;;;;30.30;79.10;;;;;;5105533;28;19908;-70
2023/06/21 12:35:12;;;;;;;;;;;30.20;79.30;;;;;;5113294;28;19920;-71
2023/06/21 12:37:37;;;;;;;;;;;30.20;79.90;;;;;;5113290;28;19923;-71
2023/06/21 12:40:05;;;;;;;;;;;30.10;79.40;;;;;;5113337;28;19914;-71
2023/06/21 12:42:31;;;;;;;;;;;30.10;82.10;;;;;;5113339;28;19952;-71
2023/06/21 12:44:57;;;;;;;;;;;30.00;80.70;;;;;;5113262;28;20344;-70
2023/06/21 12:47:23;;;;;;;;;;;30.10;80.30;;;;;;5113076;28;19912;-71
2023/06/21 12:49:48;;;;;;;;;;;30.20;80.20;;;;;;5113960;28;19907;-71
2023/06/21 12:52:14;;;;;;;;;;;30.10;79.70;;;;;;5117278;28;19947;-71
2023/06/21 12:54:55;;;;;;;;;;;30.10;80.30;;;;;;5116826;28;19912;-70
2023/06/21 12:57:27;;;;;;;;;;;30.10;80.70;;;;;;5116976;28;20437;-70
2023/06/21 12:59:53;;;;;;;;;;;30.10;80.30;;;;;;5116969;28;19977;-70
2023/06/21 13:02:25;;;;;;;;;;;30.00;79.90;;;;;;5116583;28;20281;-70
2023/06/21 13:04:52;;;;;;;;;;;29.90;80.80;;;;;;5116349;28;19912;-71
2023/06/21 13:07:18;;;;;;;;;;;29.90;79.40;;;;;;5115289;28;19911;-71
2023/06/21 13:09:43;;;;;;;;;;;29.80;81.60;;;;;;5113919;28;20002;-71
2023/06/21 13:12:09;;;;;;;;;;;29.90;82.00;;;;;;5115294;28;20525;-71
2023/06/21 13:14:34;;;;;;;;;;;30.10;82.60;;;;;;5114887;28;19916;-71
2023/06/21 13:17:00;;;;;;;;;;;30.40;81.20;;;;;;5117215;28;19915;-70
2023/06/21 13:19:25;;;;;;;;;;;30.30;78.80;;;;;;5115866;28;19994;-70
2023/06/21 13:21:51;;;;;;;;;;;30.10;79.10;;;;;;5117095;28;19912;-70
2023/06/21 13:24:17;;;;;;;;;;;30.00;81.30;;;;;;5116916;28;20297;-70
2023/06/21 13:26:43;;;;;;;;;;;30.10;79.20;;;;;;5116996;28;19915;-70
2023/06/21 13:29:09;;;;;;;;;;;30.10;81.20;;;;;;5117276;28;19912;-70
2023/06/21 13:31:34;;;;;;;;;;;30.20;81.40;;;;;;5117444;28;19912;-70
2023/06/21 13:34:00;;;;;;;;;;;30.10;81.60;;;;;;5115477;28;19965;-70
2023/06/21 13:36:25;;;;;;;;;;;30.00;80.70;;;;;;5115540;28;19912;-70
2023/06/21 13:38:51;;;;;;;;;;;29.90;79.90;;;;;;5116993;28;19912;-71
2023/06/21 13:41:16;;;;;;;;;;;29.90;80.50;;;;;;5116725;28;19912;-71
2023/06/21 13:43:44;;;;;;;;;;;30.00;80.90;;;;;;5116612;28;20360;-70
2023/06/21 13:46:09;;;;;;;;;;;29.90;79.60;;;;;;5116615;27;19944;-71
2023/06/21 13:48:35;;;;;;;;;;;29.80;81.40;;;;;;5117160;27;20396;-71
2023/06/21 13:51:00;;;;;;;;;;;29.70;80.00;;;;;;5116733;28;20006;-71
2023/06/21 13:53:27;;;;;;;;;;;29.40;79.80;;;;;;5116363;28;19959;-70
2023/06/21 13:55:52;;;;;;;;;;;29.20;81.00;;;;;;5117065;27;19912;-70
2023/06/21 13:58:18;;;;;;;;;;;28.90;82.10;;;;;;5116414;28;19915;-70
2023/06/21 14:00:43;;;;;;;;;;;28.70;82.10;;;;;;5116190;28;19912;-70
2023/06/21 14:03:09;;;;;;;;;;;28.60;83.10;;;;;;5116289;28;20003;-70
2023/06/21 14:05:35;;;;;;;;;;;28.40;84.10;;;;;;5116131;28;19912;-70
2023/06/21 14:08:00;;;;;;;;;;;28.30;84.40;;;;;;5116189;28;19915;-70
2023/06/21 14:10:26;;;;;;;;;;;28.30;84.00;;;;;;5116102;28;19912;-70
2023/06/21 14:12:51;;;;;;;;;;;28.30;84.90;;;;;;5116137;28;19916;-70
2023/06/21 14:15:17;;;;;;;;;;;28.30;83.00;;;;;;5116206;28;19920;-70
2023/06/21 14:17:42;;;;;;;;;;;28.20;84.30;;;;;;5114785;28;19961;-70
2023/06/21 14:20:09;;;;;;;;;;;28.10;85.30;;;;;;5116054;27;19924;-70
2023/06/21 14:22:38;;;;;;;;;;;28.10;85.10;;;;;;5114598;28;19960;-70
2023/06/21 14:25:05;;;;;;;;;;;28.20;85.60;;;;;;5115811;28;19912;-70
2023/06/21 14:27:31;;;;;;;;;;;28.10;85.70;;;;;;5116263;28;19915;-70
2023/06/21 14:30:05;;;;;;;;;;;27.90;84.90;;;;;;5115777;28;19912;-70
2023/06/21 14:32:32;;;;;;;;;;;27.80;86.40;;;;;;5116003;27;20325;-70
2023/06/21 14:34:57;;;;;;;;;;;27.70;86.80;;;;;;5115734;28;19912;-70
2023/06/21 14:37:25;;;;;;;;;;;27.60;86.70;;;;;;5115586;28;19915;-71
2023/06/21 14:39:51;;;;;;;;;;;27.50;87.50;;;;;;5115526;28;19914;-70
2023/06/21 14:42:17;;;;;;;;;;;27.50;87.70;;;;;;5115755;28;19908;-70
2023/06/21 14:44:44;;;;;;;;;;;27.30;87.70;;;;;;5115350;28;19912;-70
2023/06/21 14:47:09;;;;;;;;;;;27.30;88.20;;;;;;5115355;28;20417;-70
2023/06/21 14:49:35;;;;;;;;;;;27.20;88.10;;;;;;5115337;28;19908;-70
2023/06/21 14:52:01;;;;;;;;;;;27.20;88.50;;;;;;5102610;28;19934;-71
2023/06/21 14:54:27;;;;;;;;;;;27.10;89.00;;;;;;5105633;28;19981;-72
2023/06/21 14:56:53;;;;;;;;;;;27.00;89.50;;;;;;5104135;28;19916;-71
2023/06/21 14:59:19;;;;;;;;;;;26.90;89.70;;;;;;5105924;28;20019;-71
2023/06/21 15:01:44;;;;;;;;;;;26.90;88.90;;;;;;5107464;27;20380;-72
2023/06/21 15:04:10;;;;;;;;;;;26.90;89.40;;;;;;5096076;28;19916;-71
2023/06/21 15:06:36;;;;;;;;;;;26.80;89.80;;;;;;5098510;28;19963;-71
2023/06/21 15:09:01;;;;;;;;;;;26.80;90.00;;;;;;5112151;28;20292;-71
2023/06/21 15:11:27;;;;;;;;;;;26.70;89.80;;;;;;5115351;28;19919;-71
2023/06/21 15:13:52;;;;;;;;;;;26.70;90.00;;;;;;5107120;28;19916;-71
2023/06/21 15:16:18;;;;;;;;;;;26.70;90.30;;;;;;5095009;28;19998;-71
2023/06/21 15:18:43;;;;;;;;;;;26.70;90.90;;;;;;5106544;28;19955;-71
2023/06/21 15:21:09;;;;;;;;;;;26.70;91.00;;;;;;5114655;28;20361;-71
2023/06/21 15:23:35;;;;;;;;;;;26.70;91.10;;;;;;5109203;28;20001;-72
2023/06/21 15:26:01;;;;;;;;;;;26.80;91.30;;;;;;5109181;28;19920;-71
2023/06/21 15:28:28;;;;;;;;;;;26.90;91.90;;;;;;5111241;28;20285;-71
2023/06/21 15:30:55;;;;;;;;;;;26.90;91.80;;;;;;5106254;28;19922;-72
2023/06/21 15:33:21;;;;;;;;;;;26.90;92.10;;;;;;5110266;28;19943;-72
2023/06/21 15:35:46;;;;;;;;;;;27.00;93.20;;;;;;5102589;28;20373;-72
2023/06/21 15:38:12;;;;;;;;;;;26.80;96.60;;;;;;5108131;28;19912;-72
2023/06/21 15:40:38;;;;;;;;;;;26.60;96.90;;;;;;5114451;28;19969;-72
2023/06/21 15:43:04;;;;;;;;;;;26.40;97.20;;;;;;5114278;28;19919;-72
2023/06/21 15:45:29;;;;;;;;;;;26.40;98.80;;;;;;5114345;28;19912;-72
2023/06/21 15:47:55;;;;;;;;;;;26.20;99.10;;;;;;5114479;28;19912;-72
2023/06/21 15:50:20;;;;;;;;;;;26.10;99.90;;;;;;5114241;28;19938;-72